Kaunakakai, Hawaii
Current Conditions -  °F | °C
As of 2:54 AM on Monday 20 Oct 2014 (Local Time) from PHMK Reporting Station
Clear Clear  
Wind Chill: 76°   Ceiling: Unl
Heat Index: 76°   Visibility: 10mi
Dew Point: 71°   Wind: 9mph
Humidity: 85%   Direction: 50°NE
Pressure: 29.95"   Gusts: NA
Location:  21.09°N, 157.01°W
Report Text: PHMK 201254Z AUTO 05008KT 10SM CLR 24/22 A2995 RMK AO2 SLP144 T02440217 TSNO
Loading
Personal Weather Stations






























Interactive Weather Map
Tropical Storm Tracking
New forecast layout! Learn more

10-Day Weather Forecast

Advertisements
Track Severe Weather on mobile